createdAt,value
2018-09-12T00:05:59.230Z,13
2018-09-12T00:15:58.464Z,13
2018-09-12T00:25:57.692Z,12.7
2018-09-12T00:35:56.920Z,12.5
2018-09-12T00:45:56.152Z,13
2018-09-12T00:55:55.379Z,12.5
2018-09-12T01:05:54.607Z,12.8
2018-09-12T01:15:53.843Z,12.6
2018-09-12T01:25:53.071Z,12.9
2018-09-12T01:35:52.303Z,12.8
2018-09-12T01:45:51.522Z,12.6
2018-09-12T01:55:50.752Z,12.8
2018-09-12T02:05:49.979Z,13.2
2018-09-12T02:15:49.210Z,12.6
2018-09-12T02:25:48.437Z,12.9
2018-09-12T02:35:47.667Z,12.8
2018-09-12T02:45:46.902Z,12.9
2018-09-12T02:55:46.121Z,12.8
2018-09-12T03:05:45.350Z,12.6
2018-09-12T03:15:44.580Z,12.7
2018-09-12T03:25:43.810Z,13.2
2018-09-12T03:35:43.039Z,13.1
2018-09-12T03:45:42.264Z,12.7
2018-09-12T03:55:41.502Z,12.4
2018-09-12T04:05:40.729Z,13.2
2018-09-12T04:15:39.957Z,13
2018-09-12T04:25:39.185Z,12.7
2018-09-12T04:35:38.417Z,13.3
2018-09-12T04:45:37.704Z,13.9
2018-09-12T04:55:36.874Z,14.5
2018-09-12T05:05:36.106Z,14.6
2018-09-12T05:15:35.331Z,14.1
2018-09-12T05:25:34.562Z,14.2
2018-09-12T05:35:33.790Z,14.4
2018-09-12T05:45:33.019Z,14.6
2018-09-12T05:55:32.248Z,14
2018-09-12T06:05:31.486Z,14.5
2018-09-12T06:15:30.708Z,14.6
2018-09-12T06:25:29.934Z,14.2
2018-09-12T06:35:29.169Z,14.1
2018-09-12T06:45:28.402Z,14.4
2018-09-12T06:55:27.623Z,14.6
2018-09-12T07:05:26.855Z,14.7
2018-09-12T07:15:26.081Z,14.7
2018-09-12T07:25:25.312Z,14.1
2018-09-12T07:35:24.548Z,14.7
2018-09-12T07:45:23.768Z,13.9
2018-09-12T07:55:23.000Z,14
2018-09-12T08:05:22.240Z,14.7
2018-09-12T08:15:21.462Z,14
2018-09-12T08:25:20.691Z,14.1
2018-09-12T08:35:19.923Z,14.7
2018-09-12T08:45:19.150Z,14.2
2018-09-12T08:55:18.389Z,14.4
2018-09-12T09:05:17.607Z,14.2
2018-09-12T09:15:16.837Z,14.5
2018-09-12T09:25:16.065Z,13.9
2018-09-12T09:35:15.327Z,14.4
2018-09-12T09:45:14.528Z,14.6
2018-09-12T09:55:13.900Z,14
2018-09-12T10:05:12.983Z,14.4
2018-09-12T10:15:12.214Z,14.6
2018-09-12T10:25:11.451Z,14.4
2018-09-12T10:35:10.670Z,14.4
2018-09-12T10:45:09.962Z,14
2018-09-12T10:55:09.138Z,14.3
2018-09-12T11:05:08.372Z,14.5
2018-09-12T11:15:07.613Z,14
2018-09-12T11:25:06.827Z,14.5
2018-09-12T11:35:06.071Z,14.3
2018-09-12T11:45:05.326Z,14.6
2018-09-12T11:55:04.520Z,14.7
2018-09-12T12:05:03.750Z,14.6
2018-09-12T12:15:02.980Z,14.7
2018-09-12T12:35:01.439Z,14.3
2018-09-12T12:45:00.668Z,14.2
2018-09-12T12:54:59.897Z,14.2
2018-09-12T13:04:59.126Z,14.6
2018-09-12T13:14:58.358Z,13.4
2018-09-12T13:24:57.586Z,14.5
2018-09-12T13:34:56.824Z,14.1
2018-09-12T13:44:56.045Z,13.1
2018-09-12T13:54:55.275Z,12.8
2018-09-12T14:04:54.502Z,13
2018-09-12T14:14:53.732Z,13.2
2018-09-12T14:24:52.999Z,13.2
2018-09-12T14:34:52.194Z,13.2
2018-09-12T14:44:51.416Z,13
2018-09-12T14:54:50.644Z,12.8
2018-09-12T15:04:49.905Z,12.7
2018-09-12T15:14:49.102Z,12.9
2018-09-12T15:24:48.332Z,12.5
2018-09-12T15:34:47.623Z,13.1
2018-09-12T15:44:46.799Z,12.9
2018-09-12T15:54:46.031Z,12.7
2018-09-12T16:04:45.260Z,13.2
2018-09-12T16:14:44.504Z,12.6
2018-09-12T16:24:43.732Z,12.9
2018-09-12T16:34:42.982Z,12.4
2018-09-12T16:44:42.196Z,12.5
2018-09-12T16:54:41.485Z,12.7
2018-09-12T17:04:40.657Z,12.6
2018-09-12T17:14:39.888Z,12.8
2018-09-12T17:24:39.173Z,13.2
2018-09-12T17:34:38.353Z,13
2018-09-12T17:44:37.586Z,13.1
2018-09-12T17:54:36.818Z,13
2018-09-12T18:04:36.049Z,13
2018-09-12T18:14:35.290Z,12.9
2018-09-12T18:24:34.559Z,12.5
2018-09-12T18:34:33.750Z,12.6
2018-09-12T18:44:32.983Z,13.2
2018-09-12T18:54:32.213Z,13
2018-09-12T19:04:31.444Z,13
2018-09-12T19:14:30.675Z,12.7
2018-09-12T19:24:29.905Z,13
2018-09-12T19:34:29.140Z,13
2018-09-12T19:44:28.373Z,12.8
2018-09-12T19:54:27.600Z,12.9
2018-09-12T20:04:26.835Z,12.8
2018-09-12T20:14:26.130Z,12.8
2018-09-12T20:24:25.294Z,12.6
2018-09-12T20:34:24.523Z,12.8
2018-09-12T20:44:23.753Z,12.7
2018-09-12T20:54:22.982Z,12.7
2018-09-12T21:04:22.217Z,12.5
2018-09-12T21:14:21.450Z,12.9
2018-09-12T21:24:20.677Z,12.6
2018-09-12T21:34:19.918Z,12.5
2018-09-12T21:44:19.142Z,12.5
2018-09-12T21:54:18.375Z,12.9
2018-09-12T22:04:17.594Z,12.6
2018-09-12T22:14:16.828Z,12.6
2018-09-12T22:24:16.053Z,12.7
2018-09-12T22:34:15.292Z,13.1
2018-09-12T22:44:14.514Z,12.7
2018-09-12T22:54:13.745Z,13
2018-09-12T23:04:12.976Z,12.6
2018-09-12T23:14:12.205Z,12.7
2018-09-12T23:24:11.436Z,13
2018-09-12T23:34:10.670Z,12.7
2018-09-12T23:44:09.897Z,12.5
2018-09-12T23:54:09.125Z,13.1
